sensor_id;sensor_type;location;lat;lon;timestamp;P1;durP1;ratioP1;P2;durP2;ratioP2
56599;SDS011;51832;48.152;11.530;2023-08-30T00:04:50;15.40;;;10.07;;
56599;SDS011;51832;48.152;11.530;2023-08-30T00:09:58;12.40;;;9.30;;
56599;SDS011;51832;48.152;11.530;2023-08-30T00:14:59;12.48;;;8.57;;
56599;SDS011;51832;48.152;11.530;2023-08-30T00:19:59;13.05;;;8.93;;
56599;SDS011;51832;48.152;11.530;2023-08-30T00:25:00;13.90;;;9.27;;
56599;SDS011;51832;48.152;11.530;2023-08-30T00:30:00;14.95;;;9.48;;
56599;SDS011;51832;48.152;11.530;2023-08-30T00:35:01;14.38;;;9.35;;
56599;SDS011;51832;48.152;11.530;2023-08-30T00:40:01;14.68;;;8.90;;
56599;SDS011;51832;48.152;11.530;2023-08-30T00:45:03;12.85;;;9.07;;
56599;SDS011;51832;48.152;11.530;2023-08-30T00:50:04;12.85;;;9.32;;
56599;SDS011;51832;48.152;11.530;2023-08-30T00:55:05;14.18;;;8.75;;
56599;SDS011;51832;48.152;11.530;2023-08-30T01:00:07;13.32;;;8.82;;
56599;SDS011;51832;48.152;11.530;2023-08-30T01:05:09;12.38;;;9.05;;
56599;SDS011;51832;48.152;11.530;2023-08-30T01:10:10;13.30;;;8.93;;
56599;SDS011;51832;48.152;11.530;2023-08-30T01:15:11;13.05;;;9.00;;
56599;SDS011;51832;48.152;11.530;2023-08-30T01:20:18;12.85;;;8.48;;
56599;SDS011;51832;48.152;11.530;2023-08-30T01:25:33;14.50;;;8.57;;
56599;SDS011;51832;48.152;11.530;2023-08-30T01:30:47;13.98;;;9.05;;
56599;SDS011;51832;48.152;11.530;2023-08-30T01:35:48;11.30;;;8.63;;
56599;SDS011;51832;48.152;11.530;2023-08-30T01:40:49;11.27;;;8.13;;
56599;SDS011;51832;48.152;11.530;2023-08-30T01:45:51;11.93;;;8.63;;
56599;SDS011;51832;48.152;11.530;2023-08-30T01:50:52;11.43;;;8.15;;
56599;SDS011;51832;48.152;11.530;2023-08-30T01:55:54;10.20;;;7.57;;
56599;SDS011;51832;48.152;11.530;2023-08-30T02:00:55;10.32;;;7.43;;
56599;SDS011;51832;48.152;11.530;2023-08-30T02:11:26;10.60;;;7.43;;
56599;SDS011;51832;48.152;11.530;2023-08-30T02:16:28;10.23;;;7.10;;
56599;SDS011;51832;48.152;11.530;2023-08-30T02:21:29;9.32;;;6.90;;
56599;SDS011;51832;48.152;11.530;2023-08-30T02:26:30;10.10;;;7.00;;
56599;SDS011;51832;48.152;11.530;2023-08-30T02:31:30;11.38;;;7.50;;
56599;SDS011;51832;48.152;11.530;2023-08-30T02:36:31;10.82;;;7.20;;
56599;SDS011;51832;48.152;11.530;2023-08-30T02:41:31;9.47;;;7.00;;
56599;SDS011;51832;48.152;11.530;2023-08-30T02:46:31;9.47;;;7.10;;
56599;SDS011;51832;48.152;11.530;2023-08-30T02:51:32;9.30;;;6.47;;
56599;SDS011;51832;48.152;11.530;2023-08-30T02:56:32;9.17;;;6.43;;
56599;SDS011;51832;48.152;11.530;2023-08-30T03:01:33;11.30;;;7.13;;
56599;SDS011;51832;48.152;11.530;2023-08-30T03:06:34;10.02;;;6.72;;
56599;SDS011;51832;48.152;11.530;2023-08-30T03:11:34;8.23;;;6.43;;
56599;SDS011;51832;48.152;11.530;2023-08-30T03:16:35;7.07;;;5.73;;
56599;SDS011;51832;48.152;11.530;2023-08-30T03:21:35;9.68;;;6.20;;
56599;SDS011;51832;48.152;11.530;2023-08-30T03:26:36;8.32;;;6.15;;
56599;SDS011;51832;48.152;11.530;2023-08-30T03:31:36;8.10;;;6.05;;
56599;SDS011;51832;48.152;11.530;2023-08-30T03:36:37;8.05;;;6.20;;
56599;SDS011;51832;48.152;11.530;2023-08-30T03:41:38;8.27;;;6.45;;
56599;SDS011;51832;48.152;11.530;2023-08-30T03:46:38;8.80;;;6.67;;
56599;SDS011;51832;48.152;11.530;2023-08-30T03:51:39;8.30;;;5.70;;
56599;SDS011;51832;48.152;11.530;2023-08-30T03:56:39;8.07;;;5.67;;
56599;SDS011;51832;48.152;11.530;2023-08-30T04:01:39;6.47;;;4.87;;
56599;SDS011;51832;48.152;11.530;2023-08-30T04:06:40;6.70;;;4.87;;
56599;SDS011;51832;48.152;11.530;2023-08-30T04:11:40;5.73;;;5.00;;
56599;SDS011;51832;48.152;11.530;2023-08-30T04:16:42;5.20;;;4.28;;
56599;SDS011;51832;48.152;11.530;2023-08-30T04:21:42;7.00;;;5.27;;
56599;SDS011;51832;48.152;11.530;2023-08-30T04:26:43;5.45;;;4.68;;
56599;SDS011;51832;48.152;11.530;2023-08-30T04:31:43;6.13;;;5.22;;
56599;SDS011;51832;48.152;11.530;2023-08-30T04:36:43;7.20;;;5.75;;
56599;SDS011;51832;48.152;11.530;2023-08-30T04:41:44;7.43;;;5.60;;
56599;SDS011;51832;48.152;11.530;2023-08-30T04:46:45;8.27;;;6.03;;
56599;SDS011;51832;48.152;11.530;2023-08-30T04:51:45;7.95;;;6.35;;
56599;SDS011;51832;48.152;11.530;2023-08-30T04:56:45;8.85;;;5.72;;
56599;SDS011;51832;48.152;11.530;2023-08-30T05:01:46;8.60;;;6.38;;
56599;SDS011;51832;48.152;11.530;2023-08-30T05:06:46;8.55;;;6.53;;
56599;SDS011;51832;48.152;11.530;2023-08-30T05:11:47;8.43;;;6.07;;
56599;SDS011;51832;48.152;11.530;2023-08-30T05:16:48;7.07;;;5.70;;
56599;SDS011;51832;48.152;11.530;2023-08-30T05:21:49;8.40;;;5.60;;
56599;SDS011;51832;48.152;11.530;2023-08-30T05:26:54;6.95;;;5.65;;
56599;SDS011;51832;48.152;11.530;2023-08-30T05:31:55;8.30;;;6.65;;
56599;SDS011;51832;48.152;11.530;2023-08-30T05:36:55;7.22;;;5.65;;
56599;SDS011;51832;48.152;11.530;2023-08-30T05:41:55;8.52;;;5.78;;
56599;SDS011;51832;48.152;11.530;2023-08-30T05:46:56;8.07;;;6.53;;
56599;SDS011;51832;48.152;11.530;2023-08-30T05:51:56;7.22;;;6.10;;
56599;SDS011;51832;48.152;11.530;2023-08-30T05:56:57;7.93;;;6.33;;
56599;SDS011;51832;48.152;11.530;2023-08-30T06:01:57;6.72;;;5.65;;
56599;SDS011;51832;48.152;11.530;2023-08-30T06:06:58;8.50;;;6.10;;
56599;SDS011;51832;48.152;11.530;2023-08-30T06:11:58;7.47;;;6.25;;
56599;SDS011;51832;48.152;11.530;2023-08-30T06:16:58;8.27;;;5.90;;
56599;SDS011;51832;48.152;11.530;2023-08-30T06:21:59;8.33;;;5.87;;
56599;SDS011;51832;48.152;11.530;2023-08-30T06:26:59;8.20;;;6.07;;
56599;SDS011;51832;48.152;11.530;2023-08-30T06:32:00;6.32;;;5.30;;
56599;SDS011;51832;48.152;11.530;2023-08-30T06:37:00;7.60;;;6.18;;
56599;SDS011;51832;48.152;11.530;2023-08-30T06:42:01;7.82;;;6.30;;
56599;SDS011;51832;48.152;11.530;2023-08-30T06:47:01;8.57;;;5.60;;
56599;SDS011;51832;48.152;11.530;2023-08-30T06:52:02;9.52;;;6.63;;
56599;SDS011;51832;48.152;11.530;2023-08-30T06:57:04;8.18;;;6.35;;
56599;SDS011;51832;48.152;11.530;2023-08-30T07:02:06;9.70;;;7.00;;
56599;SDS011;51832;48.152;11.530;2023-08-30T07:07:07;9.13;;;6.33;;
56599;SDS011;51832;48.152;11.530;2023-08-30T07:12:07;8.25;;;6.32;;
56599;SDS011;51832;48.152;11.530;2023-08-30T07:17:08;8.20;;;6.60;;
56599;SDS011;51832;48.152;11.530;2023-08-30T07:22:08;9.57;;;6.93;;
56599;SDS011;51832;48.152;11.530;2023-08-30T07:27:09;9.00;;;6.60;;
56599;SDS011;51832;48.152;11.530;2023-08-30T07:32:09;10.32;;;6.93;;
56599;SDS011;51832;48.152;11.530;2023-08-30T07:37:18;8.15;;;6.50;;
56599;SDS011;51832;48.152;11.530;2023-08-30T07:42:21;10.98;;;6.90;;
56599;SDS011;51832;48.152;11.530;2023-08-30T07:47:22;9.45;;;6.97;;
56599;SDS011;51832;48.152;11.530;2023-08-30T07:52:22;9.13;;;6.35;;
56599;SDS011;51832;48.152;11.530;2023-08-30T07:57:23;10.10;;;7.43;;
56599;SDS011;51832;48.152;11.530;2023-08-30T08:02:23;9.80;;;7.28;;
56599;SDS011;51832;48.152;11.530;2023-08-30T08:07:23;9.93;;;8.40;;
56599;SDS011;51832;48.152;11.530;2023-08-30T08:12:25;9.38;;;6.95;;
56599;SDS011;51832;48.152;11.530;2023-08-30T08:17:26;10.15;;;7.90;;
56599;SDS011;51832;48.152;11.530;2023-08-30T08:22:26;10.40;;;7.97;;
56599;SDS011;51832;48.152;11.530;2023-08-30T08:27:27;10.15;;;7.75;;
56599;SDS011;51832;48.152;11.530;2023-08-30T08:32:27;10.15;;;8.35;;
56599;SDS011;51832;48.152;11.530;2023-08-30T08:37:28;11.00;;;7.72;;
56599;SDS011;51832;48.152;11.530;2023-08-30T08:42:28;10.30;;;8.07;;
56599;SDS011;51832;48.152;11.530;2023-08-30T08:47:32;10.15;;;8.27;;
56599;SDS011;51832;48.152;11.530;2023-08-30T08:52:33;8.30;;;7.47;;
56599;SDS011;51832;48.152;11.530;2023-08-30T08:57:33;8.80;;;7.82;;
56599;SDS011;51832;48.152;11.530;2023-08-30T09:02:34;9.40;;;7.38;;
56599;SDS011;51832;48.152;11.530;2023-08-30T09:07:35;9.97;;;6.93;;
56599;SDS011;51832;48.152;11.530;2023-08-30T09:12:36;7.30;;;6.57;;
56599;SDS011;51832;48.152;11.530;2023-08-30T09:17:37;6.53;;;5.82;;
56599;SDS011;51832;48.152;11.530;2023-08-30T09:22:41;6.85;;;6.15;;
56599;SDS011;51832;48.152;11.530;2023-08-30T09:27:42;5.72;;;5.00;;
56599;SDS011;51832;48.152;11.530;2023-08-30T09:32:43;6.40;;;5.80;;
56599;SDS011;51832;48.152;11.530;2023-08-30T09:37:45;5.47;;;4.95;;
56599;SDS011;51832;48.152;11.530;2023-08-30T09:42:46;5.35;;;4.85;;
56599;SDS011;51832;48.152;11.530;2023-08-30T09:47:49;4.63;;;4.22;;
56599;SDS011;51832;48.152;11.530;2023-08-30T09:52:50;4.88;;;4.32;;
56599;SDS011;51832;48.152;11.530;2023-08-30T09:57:52;3.43;;;3.13;;
56599;SDS011;51832;48.152;11.530;2023-08-30T10:02:53;4.38;;;3.97;;
56599;SDS011;51832;48.152;11.530;2023-08-30T10:07:55;3.97;;;3.45;;
56599;SDS011;51832;48.152;11.530;2023-08-30T10:12:56;3.83;;;3.40;;
56599;SDS011;51832;48.152;11.530;2023-08-30T10:17:57;5.07;;;4.10;;
56599;SDS011;51832;48.152;11.530;2023-08-30T10:22:58;3.95;;;2.85;;
56599;SDS011;51832;48.152;11.530;2023-08-30T10:28:00;3.28;;;2.97;;
56599;SDS011;51832;48.152;11.530;2023-08-30T10:33:01;3.88;;;2.90;;
56599;SDS011;51832;48.152;11.530;2023-08-30T10:38:03;2.97;;;2.72;;
56599;SDS011;51832;48.152;11.530;2023-08-30T10:43:04;2.90;;;2.70;;
56599;SDS011;51832;48.152;11.530;2023-08-30T10:48:04;3.53;;;2.40;;
56599;SDS011;51832;48.152;11.530;2023-08-30T10:53:12;2.75;;;2.53;;
56599;SDS011;51832;48.152;11.530;2023-08-30T10:58:13;2.88;;;2.42;;
56599;SDS011;51832;48.152;11.530;2023-08-30T11:03:14;2.60;;;2.40;;
56599;SDS011;51832;48.152;11.530;2023-08-30T11:08:14;2.38;;;2.17;;
56599;SDS011;51832;48.152;11.530;2023-08-30T11:13:16;3.55;;;2.17;;
56599;SDS011;51832;48.152;11.530;2023-08-30T11:18:18;2.00;;;1.65;;
56599;SDS011;51832;48.152;11.530;2023-08-30T11:23:19;2.10;;;1.90;;
56599;SDS011;51832;48.152;11.530;2023-08-30T11:28:23;1.85;;;1.75;;
56599;SDS011;51832;48.152;11.530;2023-08-30T11:33:24;2.05;;;1.90;;
56599;SDS011;51832;48.152;11.530;2023-08-30T11:38:24;4.90;;;1.90;;
56599;SDS011;51832;48.152;11.530;2023-08-30T11:43:26;1.90;;;1.80;;
56599;SDS011;51832;48.152;11.530;2023-08-30T11:48:28;1.92;;;1.83;;
56599;SDS011;51832;48.152;11.530;2023-08-30T11:53:29;2.45;;;2.25;;
56599;SDS011;51832;48.152;11.530;2023-08-30T11:58:34;2.20;;;2.00;;
56599;SDS011;51832;48.152;11.530;2023-08-30T12:03:35;2.20;;;2.00;;
56599;SDS011;51832;48.152;11.530;2023-08-30T12:08:36;2.17;;;1.83;;
56599;SDS011;51832;48.152;11.530;2023-08-30T12:13:36;2.47;;;2.30;;
56599;SDS011;51832;48.152;11.530;2023-08-30T12:18:37;2.30;;;2.08;;
56599;SDS011;51832;48.152;11.530;2023-08-30T12:23:37;4.57;;;2.60;;
56599;SDS011;51832;48.152;11.530;2023-08-30T12:28:41;2.77;;;2.10;;
56599;SDS011;51832;48.152;11.530;2023-08-30T12:33:44;2.20;;;2.00;;
56599;SDS011;51832;48.152;11.530;2023-08-30T12:38:44;2.17;;;1.98;;
56599;SDS011;51832;48.152;11.530;2023-08-30T12:43:45;2.33;;;2.03;;
56599;SDS011;51832;48.152;11.530;2023-08-30T12:48:45;1.60;;;1.50;;
56599;SDS011;51832;48.152;11.530;2023-08-30T12:53:45;5.90;;;4.40;;
56599;SDS011;51832;48.152;11.530;2023-08-30T12:58:46;2.15;;;1.92;;
56599;SDS011;51832;48.152;11.530;2023-08-30T13:03:46;2.33;;;1.73;;
56599;SDS011;51832;48.152;11.530;2023-08-30T13:08:46;1.80;;;1.70;;
56599;SDS011;51832;48.152;11.530;2023-08-30T13:13:47;3.60;;;1.58;;
56599;SDS011;51832;48.152;11.530;2023-08-30T13:18:47;1.90;;;1.57;;
56599;SDS011;51832;48.152;11.530;2023-08-30T13:23:48;3.72;;;2.88;;
56599;SDS011;51832;48.152;11.530;2023-08-30T13:28:48;3.15;;;2.95;;
56599;SDS011;51832;48.152;11.530;2023-08-30T13:33:49;2.70;;;2.50;;
56599;SDS011;51832;48.152;11.530;2023-08-30T13:38:49;3.43;;;2.50;;
56599;SDS011;51832;48.152;11.530;2023-08-30T13:43:49;3.47;;;2.60;;
56599;SDS011;51832;48.152;11.530;2023-08-30T13:48:50;3.03;;;2.67;;
56599;SDS011;51832;48.152;11.530;2023-08-30T13:53:50;2.20;;;2.10;;
56599;SDS011;51832;48.152;11.530;2023-08-30T13:58:51;2.95;;;2.38;;
56599;SDS011;51832;48.152;11.530;2023-08-30T14:03:52;2.45;;;2.25;;
56599;SDS011;51832;48.152;11.530;2023-08-30T14:08:52;2.67;;;2.47;;
56599;SDS011;51832;48.152;11.530;2023-08-30T14:13:53;4.10;;;2.55;;
56599;SDS011;51832;48.152;11.530;2023-08-30T14:18:53;3.38;;;2.80;;
56599;SDS011;51832;48.152;11.530;2023-08-30T14:23:54;2.42;;;2.10;;
56599;SDS011;51832;48.152;11.530;2023-08-30T14:28:54;2.60;;;2.40;;
56599;SDS011;51832;48.152;11.530;2023-08-30T14:33:55;2.28;;;1.95;;
56599;SDS011;51832;48.152;11.530;2023-08-30T14:38:57;1.80;;;1.70;;
56599;SDS011;51832;48.152;11.530;2023-08-30T14:43:57;2.58;;;1.75;;
56599;SDS011;51832;48.152;11.530;2023-08-30T14:48:58;2.00;;;1.90;;
56599;SDS011;51832;48.152;11.530;2023-08-30T14:53:59;1.90;;;1.60;;
56599;SDS011;51832;48.152;11.530;2023-08-30T14:58:59;2.67;;;1.80;;
56599;SDS011;51832;48.152;11.530;2023-08-30T15:04:00;3.72;;;2.10;;
56599;SDS011;51832;48.152;11.530;2023-08-30T15:09:00;2.42;;;1.95;;
56599;SDS011;51832;48.152;11.530;2023-08-30T15:14:03;1.88;;;1.77;;
56599;SDS011;51832;48.152;11.530;2023-08-30T15:19:03;1.85;;;1.70;;
56599;SDS011;51832;48.152;11.530;2023-08-30T15:24:04;3.00;;;1.85;;
56599;SDS011;51832;48.152;11.530;2023-08-30T15:29:05;1.90;;;1.80;;
56599;SDS011;51832;48.152;11.530;2023-08-30T15:34:05;2.53;;;1.60;;
56599;SDS011;51832;48.152;11.530;2023-08-30T15:39:06;1.38;;;1.27;;
56599;SDS011;51832;48.152;11.530;2023-08-30T15:44:09;1.60;;;1.50;;
56599;SDS011;51832;48.152;11.530;2023-08-30T15:49:27;2.47;;;1.70;;
56599;SDS011;51832;48.152;11.530;2023-08-30T15:54:28;1.88;;;1.50;;
56599;SDS011;51832;48.152;11.530;2023-08-30T15:59:28;2.80;;;1.88;;
56599;SDS011;51832;48.152;11.530;2023-08-30T16:04:28;1.70;;;1.60;;
56599;SDS011;51832;48.152;11.530;2023-08-30T16:09:29;3.27;;;2.20;;
56599;SDS011;51832;48.152;11.530;2023-08-30T16:14:29;1.85;;;1.65;;
56599;SDS011;51832;48.152;11.530;2023-08-30T16:19:30;3.03;;;1.80;;
56599;SDS011;51832;48.152;11.530;2023-08-30T16:24:30;4.10;;;1.83;;
56599;SDS011;51832;48.152;11.530;2023-08-30T16:29:32;4.05;;;1.95;;
56599;SDS011;51832;48.152;11.530;2023-08-30T16:34:32;3.50;;;2.08;;
56599;SDS011;51832;48.152;11.530;2023-08-30T16:39:33;4.35;;;2.30;;
56599;SDS011;51832;48.152;11.530;2023-08-30T16:44:33;2.15;;;1.88;;
56599;SDS011;51832;48.152;11.530;2023-08-30T16:49:34;3.57;;;1.90;;
56599;SDS011;51832;48.152;11.530;2023-08-30T16:54:34;2.10;;;2.00;;
56599;SDS011;51832;48.152;11.530;2023-08-30T16:59:36;2.35;;;2.15;;
56599;SDS011;51832;48.152;11.530;2023-08-30T17:04:36;2.22;;;1.90;;
56599;SDS011;51832;48.152;11.530;2023-08-30T17:09:37;2.15;;;1.95;;
56599;SDS011;51832;48.152;11.530;2023-08-30T17:14:38;1.77;;;1.67;;
56599;SDS011;51832;48.152;11.530;2023-08-30T17:19:38;2.03;;;1.83;;
56599;SDS011;51832;48.152;11.530;2023-08-30T17:24:39;1.58;;;1.48;;
56599;SDS011;51832;48.152;11.530;2023-08-30T17:29:40;2.60;;;1.90;;
56599;SDS011;51832;48.152;11.530;2023-08-30T17:34:40;2.17;;;1.60;;
56599;SDS011;51832;48.152;11.530;2023-08-30T17:39:41;2.90;;;1.83;;
56599;SDS011;51832;48.152;11.530;2023-08-30T17:44:41;2.65;;;2.00;;
56599;SDS011;51832;48.152;11.530;2023-08-30T17:49:43;2.30;;;1.90;;
56599;SDS011;51832;48.152;11.530;2023-08-30T17:54:43;2.10;;;1.90;;
56599;SDS011;51832;48.152;11.530;2023-08-30T17:59:44;2.20;;;2.00;;
56599;SDS011;51832;48.152;11.530;2023-08-30T18:04:44;2.53;;;2.20;;
56599;SDS011;51832;48.152;11.530;2023-08-30T18:09:45;2.50;;;2.17;;
56599;SDS011;51832;48.152;11.530;2023-08-30T18:14:45;3.47;;;2.53;;
56599;SDS011;51832;48.152;11.530;2023-08-30T18:19:47;2.60;;;2.40;;
56599;SDS011;51832;48.152;11.530;2023-08-30T18:24:49;3.75;;;2.40;;
56599;SDS011;51832;48.152;11.530;2023-08-30T18:29:50;2.60;;;2.38;;
56599;SDS011;51832;48.152;11.530;2023-08-30T18:34:50;2.42;;;2.20;;
56599;SDS011;51832;48.152;11.530;2023-08-30T18:39:51;5.25;;;2.90;;
56599;SDS011;51832;48.152;11.530;2023-08-30T18:44:51;2.42;;;2.22;;
56599;SDS011;51832;48.152;11.530;2023-08-30T18:49:52;4.97;;;2.70;;
56599;SDS011;51832;48.152;11.530;2023-08-30T18:54:53;3.00;;;2.67;;
56599;SDS011;51832;48.152;11.530;2023-08-30T18:59:54;2.90;;;2.60;;
56599;SDS011;51832;48.152;11.530;2023-08-30T19:04:54;3.55;;;3.25;;
56599;SDS011;51832;48.152;11.530;2023-08-30T19:09:55;3.92;;;3.53;;
56599;SDS011;51832;48.152;11.530;2023-08-30T19:14:55;3.90;;;3.50;;
56599;SDS011;51832;48.152;11.530;2023-08-30T19:19:56;4.05;;;3.42;;
56599;SDS011;51832;48.152;11.530;2023-08-30T19:24:56;3.50;;;3.20;;
56599;SDS011;51832;48.152;11.530;2023-08-30T19:29:57;3.92;;;3.53;;
56599;SDS011;51832;48.152;11.530;2023-08-30T19:34:57;3.80;;;3.10;;
56599;SDS011;51832;48.152;11.530;2023-08-30T19:39:58;4.28;;;3.88;;
56599;SDS011;51832;48.152;11.530;2023-08-30T19:45:04;3.47;;;3.15;;
56599;SDS011;51832;48.152;11.530;2023-08-30T19:50:05;3.63;;;2.88;;
56599;SDS011;51832;48.152;11.530;2023-08-30T19:55:06;4.05;;;2.97;;
56599;SDS011;51832;48.152;11.530;2023-08-30T20:00:07;4.15;;;2.53;;
56599;SDS011;51832;48.152;11.530;2023-08-30T20:05:09;3.72;;;2.78;;
56599;SDS011;51832;48.152;11.530;2023-08-30T20:10:10;3.15;;;2.85;;
56599;SDS011;51832;48.152;11.530;2023-08-30T20:15:11;2.67;;;2.47;;
56599;SDS011;51832;48.152;11.530;2023-08-30T20:20:11;3.42;;;3.13;;
56599;SDS011;51832;48.152;11.530;2023-08-30T20:25:12;3.78;;;3.00;;
56599;SDS011;51832;48.152;11.530;2023-08-30T20:30:14;3.20;;;2.90;;
56599;SDS011;51832;48.152;11.530;2023-08-30T20:35:14;2.65;;;2.45;;
56599;SDS011;51832;48.152;11.530;2023-08-30T20:40:15;4.55;;;2.95;;
56599;SDS011;51832;48.152;11.530;2023-08-30T20:45:16;3.08;;;2.78;;
56599;SDS011;51832;48.152;11.530;2023-08-30T20:50:16;3.15;;;2.70;;
56599;SDS011;51832;48.152;11.530;2023-08-30T20:55:16;3.78;;;3.13;;
56599;SDS011;51832;48.152;11.530;2023-08-30T21:00:17;3.63;;;3.20;;
56599;SDS011;51832;48.152;11.530;2023-08-30T21:05:17;3.42;;;3.20;;
56599;SDS011;51832;48.152;11.530;2023-08-30T21:10:18;3.88;;;2.90;;
56599;SDS011;51832;48.152;11.530;2023-08-30T21:15:18;2.73;;;2.53;;
56599;SDS011;51832;48.152;11.530;2023-08-30T21:20:18;3.20;;;2.90;;
56599;SDS011;51832;48.152;11.530;2023-08-30T21:25:21;4.50;;;3.17;;
56599;SDS011;51832;48.152;11.530;2023-08-30T21:30:22;3.58;;;3.17;;
56599;SDS011;51832;48.152;11.530;2023-08-30T21:35:23;3.08;;;2.88;;
56599;SDS011;51832;48.152;11.530;2023-08-30T21:40:23;3.37;;;3.07;;
56599;SDS011;51832;48.152;11.530;2023-08-30T21:45:24;2.92;;;2.63;;
56599;SDS011;51832;48.152;11.530;2023-08-30T21:50:24;4.38;;;2.75;;
56599;SDS011;51832;48.152;11.530;2023-08-30T21:55:24;2.90;;;2.70;;
56599;SDS011;51832;48.152;11.530;2023-08-30T22:00:25;3.00;;;2.77;;
56599;SDS011;51832;48.152;11.530;2023-08-30T22:05:25;3.33;;;2.30;;
56599;SDS011;51832;48.152;11.530;2023-08-30T22:10:25;2.42;;;2.22;;
56599;SDS011;51832;48.152;11.530;2023-08-30T22:15:26;2.83;;;2.63;;
56599;SDS011;51832;48.152;11.530;2023-08-30T22:20:27;3.28;;;2.92;;
56599;SDS011;51832;48.152;11.530;2023-08-30T22:25:27;2.45;;;2.25;;
56599;SDS011;51832;48.152;11.530;2023-08-30T22:30:27;2.70;;;2.50;;
56599;SDS011;51832;48.152;11.530;2023-08-30T22:35:28;3.45;;;2.90;;
56599;SDS011;51832;48.152;11.530;2023-08-30T22:40:29;2.50;;;2.30;;
56599;SDS011;51832;48.152;11.530;2023-08-30T22:45:29;2.60;;;2.40;;
56599;SDS011;51832;48.152;11.530;2023-08-30T22:50:30;2.50;;;2.30;;
56599;SDS011;51832;48.152;11.530;2023-08-30T22:55:31;2.60;;;2.40;;
56599;SDS011;51832;48.152;11.530;2023-08-30T23:00:31;2.10;;;2.00;;
56599;SDS011;51832;48.152;11.530;2023-08-30T23:05:32;2.35;;;2.20;;
56599;SDS011;51832;48.152;11.530;2023-08-30T23:10:33;2.40;;;2.10;;
56599;SDS011;51832;48.152;11.530;2023-08-30T23:15:34;2.13;;;1.95;;
56599;SDS011;51832;48.152;11.530;2023-08-30T23:20:34;2.20;;;1.95;;
56599;SDS011;51832;48.152;11.530;2023-08-30T23:25:38;2.40;;;2.20;;
56599;SDS011;51832;48.152;11.530;2023-08-30T23:30:39;2.58;;;2.38;;
56599;SDS011;51832;48.152;11.530;2023-08-30T23:35:39;2.30;;;2.10;;
56599;SDS011;51832;48.152;11.530;2023-08-30T23:40:40;2.28;;;2.03;;
56599;SDS011;51832;48.152;11.530;2023-08-30T23:45:41;2.17;;;2.05;;
56599;SDS011;51832;48.152;11.530;2023-08-30T23:50:41;2.20;;;2.00;;
56599;SDS011;51832;48.152;11.530;2023-08-30T23:55:48;2.40;;;2.20;;
